sensor_id;sensor_type;location;lat;lon;timestamp;temperature;humidity
5459;DHT22;2752;49.992;8.422;2023-10-19T00:00:47;11.20;94.90
5459;DHT22;2752;49.992;8.422;2023-10-19T00:03:16;11.20;95.50
5459;DHT22;2752;49.992;8.422;2023-10-19T00:05:42;11.30;95.80
5459;DHT22;2752;49.992;8.422;2023-10-19T00:08:11;11.20;95.50
5459;DHT22;2752;49.992;8.422;2023-10-19T00:10:41;11.20;95.60
5459;DHT22;2752;49.992;8.422;2023-10-19T00:13:10;11.20;95.70
5459;DHT22;2752;49.992;8.422;2023-10-19T00:15:37;11.20;96.00
5459;DHT22;2752;49.992;8.422;2023-10-19T00:18:06;11.20;96.70
5459;DHT22;2752;49.992;8.422;2023-10-19T00:20:47;11.20;96.70
5459;DHT22;2752;49.992;8.422;2023-10-19T00:23:20;11.20;96.80
5459;DHT22;2752;49.992;8.422;2023-10-19T00:25:57;11.20;96.80
5459;DHT22;2752;49.992;8.422;2023-10-19T00:28:24;11.30;97.40
5459;DHT22;2752;49.992;8.422;2023-10-19T00:30:52;11.30;96.80
5459;DHT22;2752;49.992;8.422;2023-10-19T00:33:19;11.30;96.40
5459;DHT22;2752;49.992;8.422;2023-10-19T00:35:47;11.30;96.80
5459;DHT22;2752;49.992;8.422;2023-10-19T00:38:16;11.30;96.80
5459;DHT22;2752;49.992;8.422;2023-10-19T00:40:54;11.30;96.70
5459;DHT22;2752;49.992;8.422;2023-10-19T00:43:28;11.30;96.60
5459;DHT22;2752;49.992;8.422;2023-10-19T00:45:59;11.20;96.70
5459;DHT22;2752;49.992;8.422;2023-10-19T00:48:28;11.20;97.00
5459;DHT22;2752;49.992;8.422;2023-10-19T00:50:58;11.20;98.20
5459;DHT22;2752;49.992;8.422;2023-10-19T00:53:35;11.20;98.00
5459;DHT22;2752;49.992;8.422;2023-10-19T00:56:07;11.20;98.30
5459;DHT22;2752;49.992;8.422;2023-10-19T00:58:35;11.30;98.50
5459;DHT22;2752;49.992;8.422;2023-10-19T01:01:05;11.30;98.80
5459;DHT22;2752;49.992;8.422;2023-10-19T01:03:33;11.30;99.00
5459;DHT22;2752;49.992;8.422;2023-10-19T01:06:03;11.30;99.20
5459;DHT22;2752;49.992;8.422;2023-10-19T01:08:36;11.30;99.10
5459;DHT22;2752;49.992;8.422;2023-10-19T01:11:08;11.30;99.30
5459;DHT22;2752;49.992;8.422;2023-10-19T01:13:37;11.30;99.50
5459;DHT22;2752;49.992;8.422;2023-10-19T01:16:12;11.30;99.90
5459;DHT22;2752;49.992;8.422;2023-10-19T01:18:46;11.30;99.60
5459;DHT22;2752;49.992;8.422;2023-10-19T01:21:13;11.30;99.90
5459;DHT22;2752;49.992;8.422;2023-10-19T01:23:45;11.40;99.70
5459;DHT22;2752;49.992;8.422;2023-10-19T01:26:13;11.40;99.90
5459;DHT22;2752;49.992;8.422;2023-10-19T01:28:44;11.40;99.60
5459;DHT22;2752;49.992;8.422;2023-10-19T01:31:15;11.40;99.50
5459;DHT22;2752;49.992;8.422;2023-10-19T01:33:48;11.40;99.50
5459;DHT22;2752;49.992;8.422;2023-10-19T01:36:15;11.40;99.80
5459;DHT22;2752;49.992;8.422;2023-10-19T01:38:41;11.40;99.90
5459;DHT22;2752;49.992;8.422;2023-10-19T01:41:09;11.50;99.90
5459;DHT22;2752;49.992;8.422;2023-10-19T01:43:45;11.50;99.70
5459;DHT22;2752;49.992;8.422;2023-10-19T01:46:15;11.50;99.80
5459;DHT22;2752;49.992;8.422;2023-10-19T01:48:48;11.50;99.90
5459;DHT22;2752;49.992;8.422;2023-10-19T01:51:15;11.50;99.90
5459;DHT22;2752;49.992;8.422;2023-10-19T01:53:42;11.50;99.90
5459;DHT22;2752;49.992;8.422;2023-10-19T01:56:11;11.60;99.90
5459;DHT22;2752;49.992;8.422;2023-10-19T01:58:39;11.60;99.70
5459;DHT22;2752;49.992;8.422;2023-10-19T02:01:07;11.60;99.50
5459;DHT22;2752;49.992;8.422;2023-10-19T02:03:35;11.60;99.60
5459;DHT22;2752;49.992;8.422;2023-10-19T02:06:03;11.60;99.60
5459;DHT22;2752;49.992;8.422;2023-10-19T02:08:37;11.60;99.80
5459;DHT22;2752;49.992;8.422;2023-10-19T02:11:05;11.60;99.80
5459;DHT22;2752;49.992;8.422;2023-10-19T02:13:40;11.60;99.90
5459;DHT22;2752;49.992;8.422;2023-10-19T02:16:07;11.60;99.60
5459;DHT22;2752;49.992;8.422;2023-10-19T02:18:33;11.60;99.60
5459;DHT22;2752;49.992;8.422;2023-10-19T02:21:01;11.60;99.20
5459;DHT22;2752;49.992;8.422;2023-10-19T02:23:32;11.70;99.30
5459;DHT22;2752;49.992;8.422;2023-10-19T02:26:00;11.70;99.20
5459;DHT22;2752;49.992;8.422;2023-10-19T02:28:29;11.60;98.70
5459;DHT22;2752;49.992;8.422;2023-10-19T02:30:58;11.70;99.10
5459;DHT22;2752;49.992;8.422;2023-10-19T02:33:36;11.60;98.80
5459;DHT22;2752;49.992;8.422;2023-10-19T02:36:03;11.60;99.10
5459;DHT22;2752;49.992;8.422;2023-10-19T02:38:29;11.60;99.20
5459;DHT22;2752;49.992;8.422;2023-10-19T02:40:57;11.60;99.20
5459;DHT22;2752;49.992;8.422;2023-10-19T02:43:23;11.60;99.20
5459;DHT22;2752;49.992;8.422;2023-10-19T02:45:50;11.60;99.70
5459;DHT22;2752;49.992;8.422;2023-10-19T02:48:18;11.60;99.70
5459;DHT22;2752;49.992;8.422;2023-10-19T02:50:44;11.70;99.90
5459;DHT22;2752;49.992;8.422;2023-10-19T02:53:11;11.70;99.90
5459;DHT22;2752;49.992;8.422;2023-10-19T02:55:39;11.70;99.90
5459;DHT22;2752;49.992;8.422;2023-10-19T02:58:06;11.70;99.90
5459;DHT22;2752;49.992;8.422;2023-10-19T03:00:32;11.80;99.90
5459;DHT22;2752;49.992;8.422;2023-10-19T03:03:00;11.70;99.50
5459;DHT22;2752;49.992;8.422;2023-10-19T03:05:28;11.70;99.50
5459;DHT22;2752;49.992;8.422;2023-10-19T03:07:54;11.70;99.40
5459;DHT22;2752;49.992;8.422;2023-10-19T03:10:20;11.80;99.40
5459;DHT22;2752;49.992;8.422;2023-10-19T03:12:49;11.80;98.90
5459;DHT22;2752;49.992;8.422;2023-10-19T03:15:17;11.70;98.20
5459;DHT22;2752;49.992;8.422;2023-10-19T03:17:46;11.70;98.00
5459;DHT22;2752;49.992;8.422;2023-10-19T03:20:14;11.70;98.80
5459;DHT22;2752;49.992;8.422;2023-10-19T03:22:43;11.70;98.20
5459;DHT22;2752;49.992;8.422;2023-10-19T03:25:13;11.70;99.20
5459;DHT22;2752;49.992;8.422;2023-10-19T03:27:56;11.70;99.10
5459;DHT22;2752;49.992;8.422;2023-10-19T03:30:23;11.70;99.20
5459;DHT22;2752;49.992;8.422;2023-10-19T03:32:51;11.80;99.50
5459;DHT22;2752;49.992;8.422;2023-10-19T03:35:18;11.80;99.10
5459;DHT22;2752;49.992;8.422;2023-10-19T03:37:48;11.80;99.30
5459;DHT22;2752;49.992;8.422;2023-10-19T03:40:17;11.90;98.90
5459;DHT22;2752;49.992;8.422;2023-10-19T03:42:52;11.80;98.40
5459;DHT22;2752;49.992;8.422;2023-10-19T03:45:20;11.80;98.40
5459;DHT22;2752;49.992;8.422;2023-10-19T03:47:50;11.80;98.60
5459;DHT22;2752;49.992;8.422;2023-10-19T03:50:19;11.80;99.00
5459;DHT22;2752;49.992;8.422;2023-10-19T03:52:48;11.90;98.90
5459;DHT22;2752;49.992;8.422;2023-10-19T03:55:15;11.90;98.70
5459;DHT22;2752;49.992;8.422;2023-10-19T03:57:44;11.90;98.30
5459;DHT22;2752;49.992;8.422;2023-10-19T04:00:16;11.90;98.20
5459;DHT22;2752;49.992;8.422;2023-10-19T04:02:44;11.90;98.50
5459;DHT22;2752;49.992;8.422;2023-10-19T04:05:12;11.90;98.10
5459;DHT22;2752;49.992;8.422;2023-10-19T04:07:47;11.90;99.10
5459;DHT22;2752;49.992;8.422;2023-10-19T04:10:19;11.90;98.60
5459;DHT22;2752;49.992;8.422;2023-10-19T04:12:56;12.00;98.90
5459;DHT22;2752;49.992;8.422;2023-10-19T04:15:25;12.00;98.50
5459;DHT22;2752;49.992;8.422;2023-10-19T04:17:54;12.00;99.10
5459;DHT22;2752;49.992;8.422;2023-10-19T04:20:24;12.00;99.10
5459;DHT22;2752;49.992;8.422;2023-10-19T04:22:56;12.10;99.20
5459;DHT22;2752;49.992;8.422;2023-10-19T04:25:36;12.10;98.20
5459;DHT22;2752;49.992;8.422;2023-10-19T04:28:03;12.10;98.20
5459;DHT22;2752;49.992;8.422;2023-10-19T04:30:30;12.20;98.00
5459;DHT22;2752;49.992;8.422;2023-10-19T04:32:58;12.20;96.90
5459;DHT22;2752;49.992;8.422;2023-10-19T04:35:27;12.00;96.60
5459;DHT22;2752;49.992;8.422;2023-10-19T04:37:59;12.00;97.10
5459;DHT22;2752;49.992;8.422;2023-10-19T04:40:26;11.90;98.00
5459;DHT22;2752;49.992;8.422;2023-10-19T04:42:53;11.90;98.60
5459;DHT22;2752;49.992;8.422;2023-10-19T04:45:20;11.90;98.50
5459;DHT22;2752;49.992;8.422;2023-10-19T04:47:50;11.90;98.90
5459;DHT22;2752;49.992;8.422;2023-10-19T04:50:20;11.90;99.20
5459;DHT22;2752;49.992;8.422;2023-10-19T04:52:47;12.10;99.90
5459;DHT22;2752;49.992;8.422;2023-10-19T04:55:15;12.10;98.40
5459;DHT22;2752;49.992;8.422;2023-10-19T04:57:42;12.10;98.20
5459;DHT22;2752;49.992;8.422;2023-10-19T05:00:10;12.10;98.40
5459;DHT22;2752;49.992;8.422;2023-10-19T05:02:38;12.10;98.60
5459;DHT22;2752;49.992;8.422;2023-10-19T05:05:05;12.20;98.50
5459;DHT22;2752;49.992;8.422;2023-10-19T05:07:32;12.20;98.40
5459;DHT22;2752;49.992;8.422;2023-10-19T05:09:59;12.20;97.90
5459;DHT22;2752;49.992;8.422;2023-10-19T05:12:27;12.20;98.00
5459;DHT22;2752;49.992;8.422;2023-10-19T05:14:54;12.20;97.90
5459;DHT22;2752;49.992;8.422;2023-10-19T05:17:20;12.20;98.60
5459;DHT22;2752;49.992;8.422;2023-10-19T05:19:49;12.20;98.70
5459;DHT22;2752;49.992;8.422;2023-10-19T05:22:17;12.20;99.20
5459;DHT22;2752;49.992;8.422;2023-10-19T05:24:44;12.40;99.90
5459;DHT22;2752;49.992;8.422;2023-10-19T05:27:10;12.50;99.00
5459;DHT22;2752;49.992;8.422;2023-10-19T05:29:39;12.60;98.70
5459;DHT22;2752;49.992;8.422;2023-10-19T05:32:06;12.60;97.20
5459;DHT22;2752;49.992;8.422;2023-10-19T05:34:34;12.60;97.50
5459;DHT22;2752;49.992;8.422;2023-10-19T05:37:02;12.60;97.20
5459;DHT22;2752;49.992;8.422;2023-10-19T05:39:30;12.60;98.10
5459;DHT22;2752;49.992;8.422;2023-10-19T05:41:59;12.70;98.90
5459;DHT22;2752;49.992;8.422;2023-10-19T05:44:26;12.70;97.80
5459;DHT22;2752;49.992;8.422;2023-10-19T05:46:54;12.70;98.80
5459;DHT22;2752;49.992;8.422;2023-10-19T05:49:21;12.80;98.80
5459;DHT22;2752;49.992;8.422;2023-10-19T05:51:49;12.90;98.40
5459;DHT22;2752;49.992;8.422;2023-10-19T05:54:16;12.80;96.50
5459;DHT22;2752;49.992;8.422;2023-10-19T05:56:43;12.80;96.80
5459;DHT22;2752;49.992;8.422;2023-10-19T05:59:11;12.70;97.40
5459;DHT22;2752;49.992;8.422;2023-10-19T06:01:38;12.70;98.60
5459;DHT22;2752;49.992;8.422;2023-10-19T06:04:07;12.80;98.70
5459;DHT22;2752;49.992;8.422;2023-10-19T06:06:34;12.80;99.40
5459;DHT22;2752;49.992;8.422;2023-10-19T06:09:01;13.00;98.90
5459;DHT22;2752;49.992;8.422;2023-10-19T06:11:30;13.00;97.00
5459;DHT22;2752;49.992;8.422;2023-10-19T06:13:58;13.00;94.90
5459;DHT22;2752;49.992;8.422;2023-10-19T06:16:25;12.90;94.60
5459;DHT22;2752;49.992;8.422;2023-10-19T06:18:51;12.80;95.70
5459;DHT22;2752;49.992;8.422;2023-10-19T06:21:19;12.80;96.80
5459;DHT22;2752;49.992;8.422;2023-10-19T06:23:46;12.80;97.60
5459;DHT22;2752;49.992;8.422;2023-10-19T06:26:12;12.80;98.30
5459;DHT22;2752;49.992;8.422;2023-10-19T06:28:40;12.80;99.00
5459;DHT22;2752;49.992;8.422;2023-10-19T06:31:07;12.80;99.20
5459;DHT22;2752;49.992;8.422;2023-10-19T06:33:34;12.90;99.90
5459;DHT22;2752;49.992;8.422;2023-10-19T06:36:01;12.90;99.90
5459;DHT22;2752;49.992;8.422;2023-10-19T06:38:30;12.90;99.90
5459;DHT22;2752;49.992;8.422;2023-10-19T06:40:57;12.90;99.90
5459;DHT22;2752;49.992;8.422;2023-10-19T06:43:24;12.90;99.90
5459;DHT22;2752;49.992;8.422;2023-10-19T06:45:54;13.00;99.90
5459;DHT22;2752;49.992;8.422;2023-10-19T06:48:21;13.00;99.90
5459;DHT22;2752;49.992;8.422;2023-10-19T06:50:47;13.10;99.90
5459;DHT22;2752;49.992;8.422;2023-10-19T06:53:15;13.20;99.90
5459;DHT22;2752;49.992;8.422;2023-10-19T06:55:43;13.20;97.90
5459;DHT22;2752;49.992;8.422;2023-10-19T06:58:10;13.20;97.30
5459;DHT22;2752;49.992;8.422;2023-10-19T07:00:37;13.20;97.30
5459;DHT22;2752;49.992;8.422;2023-10-19T07:03:07;13.20;97.30
5459;DHT22;2752;49.992;8.422;2023-10-19T07:05:34;13.20;97.70
5459;DHT22;2752;49.992;8.422;2023-10-19T07:08:01;13.40;98.60
5459;DHT22;2752;49.992;8.422;2023-10-19T07:10:29;13.30;96.40
5459;DHT22;2752;49.992;8.422;2023-10-19T07:12:58;13.50;97.00
5459;DHT22;2752;49.992;8.422;2023-10-19T07:15:25;13.50;95.00
5459;DHT22;2752;49.992;8.422;2023-10-19T07:17:53;13.50;94.20
5459;DHT22;2752;49.992;8.422;2023-10-19T07:20:21;13.40;94.10
5459;DHT22;2752;49.992;8.422;2023-10-19T07:22:54;13.60;95.10
5459;DHT22;2752;49.992;8.422;2023-10-19T07:25:21;13.60;94.20
5459;DHT22;2752;49.992;8.422;2023-10-19T07:27:48;13.60;94.20
5459;DHT22;2752;49.992;8.422;2023-10-19T07:30:17;13.60;94.20
5459;DHT22;2752;49.992;8.422;2023-10-19T07:32:48;13.60;94.20
5459;DHT22;2752;49.992;8.422;2023-10-19T07:35:20;13.70;94.90
5459;DHT22;2752;49.992;8.422;2023-10-19T07:37:47;13.70;95.30
5459;DHT22;2752;49.992;8.422;2023-10-19T07:40:15;13.70;95.50
5459;DHT22;2752;49.992;8.422;2023-10-19T07:42:43;13.70;94.40
5459;DHT22;2752;49.992;8.422;2023-10-19T07:45:10;13.70;94.40
5459;DHT22;2752;49.992;8.422;2023-10-19T07:47:39;13.70;94.40
5459;DHT22;2752;49.992;8.422;2023-10-19T07:50:07;13.70;95.30
5459;DHT22;2752;49.992;8.422;2023-10-19T07:52:37;13.80;94.90
5459;DHT22;2752;49.992;8.422;2023-10-19T07:55:05;13.90;95.20
5459;DHT22;2752;49.992;8.422;2023-10-19T07:57:32;13.80;94.40
5459;DHT22;2752;49.992;8.422;2023-10-19T07:59:59;13.90;94.50
5459;DHT22;2752;49.992;8.422;2023-10-19T08:02:26;13.80;94.40
5459;DHT22;2752;49.992;8.422;2023-10-19T08:04:56;13.90;94.50
5459;DHT22;2752;49.992;8.422;2023-10-19T08:07:22;13.90;94.50
5459;DHT22;2752;49.992;8.422;2023-10-19T08:09:52;14.00;95.60
5459;DHT22;2752;49.992;8.422;2023-10-19T08:12:18;14.10;94.00
5459;DHT22;2752;49.992;8.422;2023-10-19T08:14:45;14.10;91.40
5459;DHT22;2752;49.992;8.422;2023-10-19T08:17:12;14.10;91.40
5459;DHT22;2752;49.992;8.422;2023-10-19T08:19:39;14.10;92.60
5459;DHT22;2752;49.992;8.422;2023-10-19T08:22:07;14.10;93.00
5459;DHT22;2752;49.992;8.422;2023-10-19T08:24:35;14.10;93.80
5459;DHT22;2752;49.992;8.422;2023-10-19T08:27:01;14.10;94.50
5459;DHT22;2752;49.992;8.422;2023-10-19T08:29:30;14.10;94.60
5459;DHT22;2752;49.992;8.422;2023-10-19T08:31:57;14.20;93.30
5459;DHT22;2752;49.992;8.422;2023-10-19T08:34:24;14.20;93.30
5459;DHT22;2752;49.992;8.422;2023-10-19T08:36:51;14.30;90.30
5459;DHT22;2752;49.992;8.422;2023-10-19T08:39:20;14.40;89.00
5459;DHT22;2752;49.992;8.422;2023-10-19T08:41:50;14.50;86.10
5459;DHT22;2752;49.992;8.422;2023-10-19T08:44:20;14.30;85.00
5459;DHT22;2752;49.992;8.422;2023-10-19T08:46:46;14.40;87.40
5459;DHT22;2752;49.992;8.422;2023-10-19T08:49:14;14.40;89.00
5459;DHT22;2752;49.992;8.422;2023-10-19T08:51:44;14.40;89.00
5459;DHT22;2752;49.992;8.422;2023-10-19T08:54:11;14.50;91.50
5459;DHT22;2752;49.992;8.422;2023-10-19T08:56:41;14.60;90.20
5459;DHT22;2752;49.992;8.422;2023-10-19T08:59:08;14.60;90.10
5459;DHT22;2752;49.992;8.422;2023-10-19T09:01:37;14.70;89.00
5459;DHT22;2752;49.992;8.422;2023-10-19T09:04:04;14.70;89.00
5459;DHT22;2752;49.992;8.422;2023-10-19T09:06:34;14.70;88.70
5459;DHT22;2752;49.992;8.422;2023-10-19T09:09:07;14.50;87.10
5459;DHT22;2752;49.992;8.422;2023-10-19T09:11:34;14.60;88.10
5459;DHT22;2752;49.992;8.422;2023-10-19T09:14:04;14.60;87.30
5459;DHT22;2752;49.992;8.422;2023-10-19T09:16:31;14.70;88.20
5459;DHT22;2752;49.992;8.422;2023-10-19T09:18:59;14.90;88.90
5459;DHT22;2752;49.992;8.422;2023-10-19T09:21:26;15.00;85.00
5459;DHT22;2752;49.992;8.422;2023-10-19T09:23:54;15.10;84.10
5459;DHT22;2752;49.992;8.422;2023-10-19T09:26:21;15.10;84.20
5459;DHT22;2752;49.992;8.422;2023-10-19T09:28:49;15.40;85.40
5459;DHT22;2752;49.992;8.422;2023-10-19T09:31:18;15.50;84.30
5459;DHT22;2752;49.992;8.422;2023-10-19T09:33:47;15.70;81.10
5459;DHT22;2752;49.992;8.422;2023-10-19T09:36:14;15.70;79.40
5459;DHT22;2752;49.992;8.422;2023-10-19T09:38:45;15.90;78.20
5459;DHT22;2752;49.992;8.422;2023-10-19T09:41:15;16.00;74.50
5459;DHT22;2752;49.992;8.422;2023-10-19T09:43:44;16.00;73.40
5459;DHT22;2752;49.992;8.422;2023-10-19T09:46:12;16.00;73.40
5459;DHT22;2752;49.992;8.422;2023-10-19T09:48:41;16.30;73.60
5459;DHT22;2752;49.992;8.422;2023-10-19T09:51:09;16.40;71.00
5459;DHT22;2752;49.992;8.422;2023-10-19T09:53:38;16.50;66.50
5459;DHT22;2752;49.992;8.422;2023-10-19T09:56:08;16.50;63.00
5459;DHT22;2752;49.992;8.422;2023-10-19T09:58:40;16.70;61.40
5459;DHT22;2752;49.992;8.422;2023-10-19T10:01:08;16.80;59.00
5459;DHT22;2752;49.992;8.422;2023-10-19T10:03:47;16.90;56.90
5459;DHT22;2752;49.992;8.422;2023-10-19T10:06:15;17.00;56.70
5459;DHT22;2752;49.992;8.422;2023-10-19T10:08:46;17.10;53.30
5459;DHT22;2752;49.992;8.422;2023-10-19T10:11:15;17.10;50.90
5459;DHT22;2752;49.992;8.422;2023-10-19T10:13:42;17.20;52.90
5459;DHT22;2752;49.992;8.422;2023-10-19T10:16:09;17.20;52.50
5459;DHT22;2752;49.992;8.422;2023-10-19T10:18:41;17.10;53.30
5459;DHT22;2752;49.992;8.422;2023-10-19T10:21:11;17.20;54.90
5459;DHT22;2752;49.992;8.422;2023-10-19T10:23:42;17.40;54.20
5459;DHT22;2752;49.992;8.422;2023-10-19T10:26:10;17.40;53.00
5459;DHT22;2752;49.992;8.422;2023-10-19T10:28:38;17.60;55.00
5459;DHT22;2752;49.992;8.422;2023-10-19T10:31:14;17.90;49.30
5459;DHT22;2752;49.992;8.422;2023-10-19T10:33:43;18.10;44.10
5459;DHT22;2752;49.992;8.422;2023-10-19T10:36:13;18.10;43.60
5459;DHT22;2752;49.992;8.422;2023-10-19T10:38:40;18.30;43.80
5459;DHT22;2752;49.992;8.422;2023-10-19T10:41:07;18.30;42.20
5459;DHT22;2752;49.992;8.422;2023-10-19T10:43:54;18.40;43.10
5459;DHT22;2752;49.992;8.422;2023-10-19T10:46:22;18.50;43.30
5459;DHT22;2752;49.992;8.422;2023-10-19T10:48:49;18.70;35.80
5459;DHT22;2752;49.992;8.422;2023-10-19T10:51:19;18.80;28.20
5459;DHT22;2752;49.992;8.422;2023-10-19T10:53:47;18.90;27.80
5459;DHT22;2752;49.992;8.422;2023-10-19T10:56:14;18.80;31.00
5459;DHT22;2752;49.992;8.422;2023-10-19T10:58:41;18.80;31.90
5459;DHT22;2752;49.992;8.422;2023-10-19T11:01:08;18.80;29.80
5459;DHT22;2752;49.992;8.422;2023-10-19T11:03:35;18.70;32.90
5459;DHT22;2752;49.992;8.422;2023-10-19T11:06:05;18.80;30.90
5459;DHT22;2752;49.992;8.422;2023-10-19T11:08:35;18.70;27.80
5459;DHT22;2752;49.992;8.422;2023-10-19T11:11:03;18.60;29.30
5459;DHT22;2752;49.992;8.422;2023-10-19T11:13:31;18.40;32.40
5459;DHT22;2752;49.992;8.422;2023-10-19T11:16:02;18.40;36.50
5459;DHT22;2752;49.992;8.422;2023-10-19T11:18:33;18.40;38.40
5459;DHT22;2752;49.992;8.422;2023-10-19T11:21:01;18.40;40.00
5459;DHT22;2752;49.992;8.422;2023-10-19T11:23:42;18.40;41.30
5459;DHT22;2752;49.992;8.422;2023-10-19T11:26:10;18.50;39.60
5459;DHT22;2752;49.992;8.422;2023-10-19T11:28:38;18.50;37.40
5459;DHT22;2752;49.992;8.422;2023-10-19T11:31:19;18.40;37.70
5459;DHT22;2752;49.992;8.422;2023-10-19T11:33:47;18.50;37.00
5459;DHT22;2752;49.992;8.422;2023-10-19T11:36:15;18.50;38.80
5459;DHT22;2752;49.992;8.422;2023-10-19T11:38:46;18.40;40.00
5459;DHT22;2752;49.992;8.422;2023-10-19T11:41:13;18.40;44.40
5459;DHT22;2752;49.992;8.422;2023-10-19T11:43:43;18.30;45.40
5459;DHT22;2752;49.992;8.422;2023-10-19T11:46:10;18.30;47.90
5459;DHT22;2752;49.992;8.422;2023-10-19T11:48:38;18.30;48.00
5459;DHT22;2752;49.992;8.422;2023-10-19T11:51:08;18.40;45.40
5459;DHT22;2752;49.992;8.422;2023-10-19T11:53:37;18.30;47.50
5459;DHT22;2752;49.992;8.422;2023-10-19T11:56:06;18.60;42.40
5459;DHT22;2752;49.992;8.422;2023-10-19T11:58:34;18.70;37.90
5459;DHT22;2752;49.992;8.422;2023-10-19T12:01:03;18.80;36.20
